Time;durP1;ratioP1;P1;durP2;ratioP2;P2;SDS_P1;SDS_P2;PMS_P1;PMS_P2;Temp;Humidity;BMP_temperature;BMP_pressure;BME280_temperature;BME280_humidity;BME280_pressure;Samples;Min_cycle;Max_cycle;Signal;HPM_P1;HPM_P2
2023/05/13 00:01:42;;;;;;;4.97;2.20;;;;;;;;;;5062519;28;20036;-71
2023/05/13 00:04:09;;;;;;;7.38;2.50;;;;;;;;;;5062995;28;20047;-70
2023/05/13 00:06:35;;;;;;;6.75;2.25;;;;;;;;;;5061565;28;20016;-70
2023/05/13 00:09:01;;;;;;;10.00;3.20;;;;;;;;;;5062450;28;20112;-69
2023/05/13 00:11:27;;;;;;;5.32;2.38;;;;;;;;;;5061659;28;20112;-70
2023/05/13 00:13:54;;;;;;;8.93;2.78;;;;;;;;;;5062699;28;20099;-67
2023/05/13 00:16:22;;;;;;;6.32;3.13;;;;;;;;;;5060385;28;20548;-68
2023/05/13 00:18:49;;;;;;;6.28;2.50;;;;;;;;;;5062943;28;20075;-67
2023/05/13 00:21:16;;;;;;;6.10;2.88;;;;;;;;;;5059792;28;20039;-68
2023/05/13 00:23:42;;;;;;;5.88;2.47;;;;;;;;;;5062616;28;20025;-66
2023/05/13 00:26:08;;;;;;;5.28;2.60;;;;;;;;;;5055315;28;20013;-66
2023/05/13 00:28:35;;;;;;;6.85;2.85;;;;;;;;;;5062679;28;20070;-70
2023/05/13 00:31:01;;;;;;;7.68;2.75;;;;;;;;;;5060628;28;20737;-67
2023/05/13 00:33:27;;;;;;;6.53;2.72;;;;;;;;;;5060985;28;20079;-67
2023/05/13 00:35:53;;;;;;;6.97;2.40;;;;;;;;;;5058722;28;20021;-67
2023/05/13 00:38:19;;;;;;;8.02;2.50;;;;;;;;;;5059909;28;20033;-69
2023/05/13 00:40:46;;;;;;;9.30;2.63;;;;;;;;;;5057317;28;20776;-67
2023/05/13 00:43:12;;;;;;;7.97;2.40;;;;;;;;;;5056500;28;20044;-69
2023/05/13 00:45:39;;;;;;;9.23;2.50;;;;;;;;;;5056482;28;20069;-68
2023/05/13 00:48:06;;;;;;;9.27;2.80;;;;;;;;;;5060911;28;20108;-69
2023/05/13 00:50:33;;;;;;;7.68;2.85;;;;;;;;;;5063293;28;20024;-67
2023/05/13 00:52:59;;;;;;;5.60;3.15;;;;;;;;;;5058509;28;20487;-68
2023/05/13 00:55:25;;;;;;;9.63;3.38;;;;;;;;;;5062936;28;20048;-67
2023/05/13 00:57:52;;;;;;;9.85;2.90;;;;;;;;;;5062822;28;20024;-68
2023/05/13 01:00:18;;;;;;;8.25;2.95;;;;;;;;;;5061570;28;20067;-68
2023/05/13 01:02:49;;;;;;;9.15;3.13;;;;;;;;;;5062969;28;20059;-68
2023/05/13 01:05:20;;;;;;;5.85;2.22;;;;;;;;;;5063028;28;20052;-68
2023/05/13 01:07:50;;;;;;;10.40;2.88;;;;;;;;;;5062331;28;20127;-68
2023/05/13 01:10:30;;;;;;;6.82;3.13;;;;;;;;;;5061144;28;20666;-67
2023/05/13 01:12:59;;;;;;;6.88;2.15;;;;;;;;;;5054048;28;20017;-68
2023/05/13 01:15:26;;;;;;;8.55;2.38;;;;;;;;;;5063297;28;20137;-68
2023/05/13 01:18:01;;;;;;;9.27;2.40;;;;;;;;;;5057690;28;20013;-68
2023/05/13 01:20:28;;;;;;;5.60;2.63;;;;;;;;;;5062572;28;20028;-68
2023/05/13 01:22:55;;;;;;;4.25;2.30;;;;;;;;;;5062635;28;20219;-69
2023/05/13 01:25:21;;;;;;;6.72;1.83;;;;;;;;;;5060691;28;20017;-69
2023/05/13 01:27:48;;;;;;;6.90;2.40;;;;;;;;;;5062690;28;20439;-69
2023/05/13 01:30:14;;;;;;;4.28;1.98;;;;;;;;;;5062720;28;20031;-69
2023/05/13 01:32:40;;;;;;;5.00;2.03;;;;;;;;;;5061488;28;20023;-70
2023/05/13 01:35:07;;;;;;;6.63;2.00;;;;;;;;;;5062882;28;20131;-70
2023/05/13 01:37:34;;;;;;;9.00;2.65;;;;;;;;;;5060704;28;20016;-68
2023/05/13 01:40:00;;;;;;;6.53;2.20;;;;;;;;;;5061190;28;20024;-70
2023/05/13 01:42:27;;;;;;;6.55;2.55;;;;;;;;;;5061092;28;20032;-70
2023/05/13 01:44:54;;;;;;;4.43;1.92;;;;;;;;;;5061730;28;20027;-70
2023/05/13 01:47:20;;;;;;;6.95;2.42;;;;;;;;;;5055209;28;20024;-68
2023/05/13 01:49:46;;;;;;;5.30;2.28;;;;;;;;;;5055317;28;20029;-69
2023/05/13 01:52:12;;;;;;;6.45;2.28;;;;;;;;;;5059264;28;20108;-69
2023/05/13 01:54:38;;;;;;;8.40;2.35;;;;;;;;;;5053519;28;20043;-69
2023/05/13 01:57:05;;;;;;;6.82;2.30;;;;;;;;;;5059326;28;20025;-69
2023/05/13 01:59:31;;;;;;;10.10;2.58;;;;;;;;;;5061386;28;20642;-69
2023/05/13 02:01:57;;;;;;;5.88;2.08;;;;;;;;;;5059559;28;20051;-70
2023/05/13 02:04:23;;;;;;;7.43;2.60;;;;;;;;;;5056925;28;20048;-68
2023/05/13 02:06:49;;;;;;;7.25;2.40;;;;;;;;;;5061894;28;20020;-71
2023/05/13 02:09:16;;;;;;;6.95;2.78;;;;;;;;;;5060029;28;20019;-68
2023/05/13 02:11:42;;;;;;;6.25;2.30;;;;;;;;;;5058065;28;20016;-69
2023/05/13 02:14:08;;;;;;;7.53;2.88;;;;;;;;;;5060777;28;20116;-68
2023/05/13 02:16:34;;;;;;;6.80;2.50;;;;;;;;;;5060922;28;20241;-69
2023/05/13 02:19:00;;;;;;;8.00;2.80;;;;;;;;;;5058932;28;20013;-69
2023/05/13 02:21:27;;;;;;;6.57;2.40;;;;;;;;;;5056237;28;20064;-70
2023/05/13 02:23:53;;;;;;;7.65;2.70;;;;;;;;;;5058998;28;20012;-68
2023/05/13 02:26:19;;;;;;;6.95;2.45;;;;;;;;;;5060613;28;20016;-70
2023/05/13 02:28:46;;;;;;;5.43;2.35;;;;;;;;;;5061616;28;20033;-71
2023/05/13 02:31:12;;;;;;;4.82;2.33;;;;;;;;;;5059396;28;20028;-68
2023/05/13 02:33:38;;;;;;;5.57;2.30;;;;;;;;;;5059562;28;20039;-68
2023/05/13 02:36:05;;;;;;;8.55;2.95;;;;;;;;;;5060246;28;20477;-70
2023/05/13 02:38:31;;;;;;;8.20;2.33;;;;;;;;;;5057156;28;20103;-70
2023/05/13 02:40:57;;;;;;;7.22;2.88;;;;;;;;;;5058934;28;20392;-68
2023/05/13 02:43:23;;;;;;;3.65;2.10;;;;;;;;;;5059579;28;20223;-69
2023/05/13 02:45:50;;;;;;;8.18;2.22;;;;;;;;;;5057127;28;20032;-68
2023/05/13 02:48:16;;;;;;;4.45;2.30;;;;;;;;;;5059340;28;20033;-69
2023/05/13 02:50:42;;;;;;;12.45;3.30;;;;;;;;;;5061494;28;20024;-68
2023/05/13 02:53:08;;;;;;;6.93;2.38;;;;;;;;;;5058435;28;20571;-68
2023/05/13 02:55:35;;;;;;;6.90;2.65;;;;;;;;;;5059448;28;20396;-68
2023/05/13 02:58:01;;;;;;;7.10;2.38;;;;;;;;;;5060417;28;20047;-68
2023/05/13 03:00:27;;;;;;;6.63;2.83;;;;;;;;;;5046181;28;20154;-68
2023/05/13 03:02:53;;;;;;;9.27;2.70;;;;;;;;;;5057735;28;20029;-69
2023/05/13 03:05:19;;;;;;;7.38;3.00;;;;;;;;;;5059243;28;20044;-71
2023/05/13 03:07:46;;;;;;;8.88;2.90;;;;;;;;;;5058926;28;20032;-71
2023/05/13 03:10:12;;;;;;;9.07;2.92;;;;;;;;;;5060994;28;20029;-69
2023/05/13 03:12:38;;;;;;;6.93;3.30;;;;;;;;;;5061031;28;20031;-69
2023/05/13 03:15:05;;;;;;;7.07;3.58;;;;;;;;;;5058461;28;20044;-70
2023/05/13 03:17:32;;;;;;;11.10;3.45;;;;;;;;;;5060805;28;20054;-69
2023/05/13 03:19:58;;;;;;;11.48;3.28;;;;;;;;;;5057574;28;20075;-69
2023/05/13 03:22:24;;;;;;;9.75;3.53;;;;;;;;;;5060187;28;20020;-70
2023/05/13 03:24:50;;;;;;;10.18;3.70;;;;;;;;;;5061167;28;20028;-71
2023/05/13 03:27:17;;;;;;;9.27;3.10;;;;;;;;;;5058706;28;20025;-70
2023/05/13 03:29:43;;;;;;;7.15;3.22;;;;;;;;;;5060644;28;20025;-71
2023/05/13 03:32:09;;;;;;;10.02;3.92;;;;;;;;;;5060115;28;20112;-69
2023/05/13 03:34:36;;;;;;;14.07;4.15;;;;;;;;;;5054435;28;20086;-69
2023/05/13 03:37:02;;;;;;;13.02;4.38;;;;;;;;;;5060348;28;20126;-69
2023/05/13 03:39:29;;;;;;;14.52;3.65;;;;;;;;;;5051268;28;20028;-68
2023/05/13 03:41:55;;;;;;;12.18;3.28;;;;;;;;;;5056079;28;20029;-68
2023/05/13 03:44:21;;;;;;;7.97;2.92;;;;;;;;;;5058456;28;20036;-68
2023/05/13 03:46:48;;;;;;;9.88;3.08;;;;;;;;;;5059806;28;20524;-68
2023/05/13 03:49:14;;;;;;;8.98;4.53;;;;;;;;;;5058186;28;20035;-69
2023/05/13 03:51:40;;;;;;;11.23;3.53;;;;;;;;;;5058913;28;20021;-68
2023/05/13 03:54:06;;;;;;;11.02;3.70;;;;;;;;;;5058333;28;20037;-68
2023/05/13 03:56:32;;;;;;;13.68;3.20;;;;;;;;;;5059502;28;20035;-68
2023/05/13 03:58:58;;;;;;;12.18;3.97;;;;;;;;;;5060501;28;20527;-68
2023/05/13 04:01:25;;;;;;;13.27;4.03;;;;;;;;;;5052141;28;20549;-68
2023/05/13 04:03:51;;;;;;;9.25;3.83;;;;;;;;;;5056067;28;20028;-68
2023/05/13 04:06:17;;;;;;;12.57;3.80;;;;;;;;;;5057972;28;20032;-68
2023/05/13 04:08:43;;;;;;;10.43;3.53;;;;;;;;;;5060701;28;20020;-70
2023/05/13 04:11:09;;;;;;;13.32;3.95;;;;;;;;;;5057943;28;20036;-69
2023/05/13 04:13:36;;;;;;;10.10;4.03;;;;;;;;;;5058362;28;20454;-68
2023/05/13 04:16:02;;;;;;;13.02;4.20;;;;;;;;;;5054683;28;20483;-68
2023/05/13 04:18:29;;;;;;;15.27;4.00;;;;;;;;;;5059432;28;20024;-69
2023/05/13 04:20:55;;;;;;;8.75;4.15;;;;;;;;;;5055234;28;20041;-69
2023/05/13 04:23:21;;;;;;;13.43;4.40;;;;;;;;;;5057159;28;20058;-69
2023/05/13 04:25:51;;;;;;;8.90;3.60;;;;;;;;;;5055729;28;20024;-70
2023/05/13 04:28:18;;;;;;;10.18;4.20;;;;;;;;;;5060037;28;20107;-69
2023/05/13 04:30:44;;;;;;;9.63;3.78;;;;;;;;;;5058426;28;20576;-69
2023/05/13 04:33:10;;;;;;;16.60;4.38;;;;;;;;;;5063005;28;20370;-71
2023/05/13 04:35:37;;;;;;;13.68;4.15;;;;;;;;;;5063577;28;20039;-71
2023/05/13 04:38:04;;;;;;;9.30;4.32;;;;;;;;;;5061283;28;20031;-70
2023/05/13 04:40:30;;;;;;;13.25;4.10;;;;;;;;;;5063748;28;20016;-70
2023/05/13 04:42:56;;;;;;;10.75;3.97;;;;;;;;;;5063439;28;20021;-70
2023/05/13 04:45:25;;;;;;;14.80;4.63;;;;;;;;;;5062636;28;20048;-70
2023/05/13 04:47:51;;;;;;;13.82;3.83;;;;;;;;;;5063261;28;20134;-71
2023/05/13 04:50:17;;;;;;;9.98;4.28;;;;;;;;;;5060373;28;20028;-72
2023/05/13 04:52:46;;;;;;;7.72;3.40;;;;;;;;;;5061506;28;20028;-71
2023/05/13 04:55:12;;;;;;;8.40;3.60;;;;;;;;;;5063390;28;20504;-70
2023/05/13 04:57:38;;;;;;;10.27;3.70;;;;;;;;;;5060351;28;20025;-70
2023/05/13 05:00:07;;;;;;;11.93;3.92;;;;;;;;;;5060839;28;20048;-70
2023/05/13 05:02:33;;;;;;;7.97;3.85;;;;;;;;;;5061276;28;20496;-71
2023/05/13 05:04:59;;;;;;;11.25;3.55;;;;;;;;;;5060914;28;20040;-70
2023/05/13 05:07:25;;;;;;;10.07;4.22;;;;;;;;;;5060938;28;20512;-70
2023/05/13 05:09:51;;;;;;;11.35;4.53;;;;;;;;;;5055082;28;20629;-70
2023/05/13 05:12:18;;;;;;;13.40;4.18;;;;;;;;;;5061658;28;20116;-70
2023/05/13 05:14:44;;;;;;;15.73;4.75;;;;;;;;;;5061816;28;20044;-71
2023/05/13 05:17:10;;;;;;;14.90;4.85;;;;;;;;;;5060938;28;20029;-71
2023/05/13 05:19:36;;;;;;;15.23;5.38;;;;;;;;;;5056485;28;20033;-70
2023/05/13 05:22:03;;;;;;;13.63;4.63;;;;;;;;;;5062852;28;20024;-69
2023/05/13 05:24:29;;;;;;;11.63;4.63;;;;;;;;;;5062776;28;20385;-70
2023/05/13 05:26:55;;;;;;;12.00;4.68;;;;;;;;;;5061144;28;20077;-70
2023/05/13 05:29:21;;;;;;;7.07;3.90;;;;;;;;;;5054676;28;20469;-70
2023/05/13 05:31:48;;;;;;;16.67;5.25;;;;;;;;;;5056969;28;20028;-68
2023/05/13 05:34:14;;;;;;;10.18;4.72;;;;;;;;;;5061934;28;20036;-69
2023/05/13 05:36:40;;;;;;;15.73;4.85;;;;;;;;;;5055585;28;20028;-70
2023/05/13 05:39:07;;;;;;;16.25;4.95;;;;;;;;;;5062542;28;20060;-70
2023/05/13 05:41:33;;;;;;;11.25;4.80;;;;;;;;;;5061531;28;20124;-69
2023/05/13 05:43:59;;;;;;;10.20;4.70;;;;;;;;;;5063063;28;20020;-69
2023/05/13 05:46:25;;;;;;;11.13;4.55;;;;;;;;;;5058310;28;20032;-70
2023/05/13 05:48:51;;;;;;;15.23;4.85;;;;;;;;;;5059304;28;20025;-70
2023/05/13 05:51:18;;;;;;;12.63;5.15;;;;;;;;;;5054706;28;20036;-71
2023/05/13 05:53:44;;;;;;;12.23;5.75;;;;;;;;;;5059043;28;20036;-69
2023/05/13 05:56:10;;;;;;;15.50;5.20;;;;;;;;;;5062218;28;20024;-70
2023/05/13 05:58:36;;;;;;;16.33;4.88;;;;;;;;;;5061108;28;20585;-70
2023/05/13 06:01:02;;;;;;;16.15;5.03;;;;;;;;;;5059794;28;20029;-70
2023/05/13 06:03:29;;;;;;;14.07;4.50;;;;;;;;;;5061068;28;20111;-70
2023/05/13 06:05:55;;;;;;;16.88;4.88;;;;;;;;;;5050679;28;20412;-70
2023/05/13 06:08:28;;;;;;;16.98;5.43;;;;;;;;;;5057598;28;20107;-70
2023/05/13 06:10:54;;;;;;;18.40;4.88;;;;;;;;;;5059881;28;20099;-72
2023/05/13 06:13:20;;;;;;;13.45;4.82;;;;;;;;;;5059647;28;20601;-69
2023/05/13 06:15:47;;;;;;;14.48;4.90;;;;;;;;;;5056119;28;20048;-70
2023/05/13 06:18:13;;;;;;;15.15;4.65;;;;;;;;;;5061656;28;20017;-72
2023/05/13 06:20:40;;;;;;;15.38;4.65;;;;;;;;;;5061233;28;20031;-70
2023/05/13 06:23:07;;;;;;;15.63;5.68;;;;;;;;;;5058507;28;20019;-70
2023/05/13 06:25:33;;;;;;;14.10;5.05;;;;;;;;;;5061059;28;20064;-71
2023/05/13 06:28:00;;;;;;;15.57;4.88;;;;;;;;;;5059658;28;20023;-71
2023/05/13 06:30:26;;;;;;;17.77;5.93;;;;;;;;;;5060238;28;20040;-72
2023/05/13 06:32:53;;;;;;;14.10;6.00;;;;;;;;;;5061280;28;20022;-71
2023/05/13 06:35:20;;;;;;;13.38;5.38;;;;;;;;;;5058112;28;20035;-72
2023/05/13 06:37:46;;;;;;;20.40;6.05;;;;;;;;;;5060309;28;20032;-71
2023/05/13 06:40:12;;;;;;;14.15;5.40;;;;;;;;;;5057506;28;20028;-71
2023/05/13 06:42:40;;;;;;;14.80;5.82;;;;;;;;;;5059612;28;20024;-69
2023/05/13 06:45:09;;;;;;;14.23;6.07;;;;;;;;;;5055055;28;20103;-71
2023/05/13 06:47:35;;;;;;;21.52;7.15;;;;;;;;;;5059297;28;20496;-73
2023/05/13 06:50:02;;;;;;;13.90;6.50;;;;;;;;;;5060675;28;20024;-70
2023/05/13 06:52:30;;;;;;;25.55;7.22;;;;;;;;;;5063430;28;20622;-71
2023/05/13 06:54:56;;;;;;;16.63;6.47;;;;;;;;;;5055746;28;20036;-72
2023/05/13 06:57:22;;;;;;;17.35;7.03;;;;;;;;;;5061326;28;20075;-68
2023/05/13 06:59:48;;;;;;;19.27;6.03;;;;;;;;;;5061487;28;20113;-70
2023/05/13 07:02:14;;;;;;;15.40;5.28;;;;;;;;;;5062655;28;20025;-68
2023/05/13 07:04:40;;;;;;;13.05;6.18;;;;;;;;;;5061393;28;20113;-68
2023/05/13 07:07:07;;;;;;;16.05;5.93;;;;;;;;;;5062015;28;20027;-68
2023/05/13 07:09:33;;;;;;;17.55;6.35;;;;;;;;;;5060158;28;20030;-68
2023/05/13 07:11:59;;;;;;;18.77;5.70;;;;;;;;;;5059232;28;20020;-68
2023/05/13 07:14:26;;;;;;;19.80;6.78;;;;;;;;;;5057862;28;20819;-68
2023/05/13 07:16:52;;;;;;;20.15;6.50;;;;;;;;;;5061753;28;20159;-68
2023/05/13 07:19:18;;;;;;;15.05;6.40;;;;;;;;;;5057110;28;20024;-69
2023/05/13 07:21:44;;;;;;;15.15;7.90;;;;;;;;;;5059034;28;20020;-68
2023/05/13 07:24:10;;;;;;;17.20;8.48;;;;;;;;;;5061963;28;20025;-69
2023/05/13 07:26:37;;;;;;;17.23;7.15;;;;;;;;;;5062776;28;20016;-68
2023/05/13 07:29:04;;;;;;;20.90;7.95;;;;;;;;;;5057812;28;20115;-68
2023/05/13 07:31:30;;;;;;;14.70;5.88;;;;;;;;;;5061801;28;20027;-70
2023/05/13 07:33:56;;;;;;;10.40;5.32;;;;;;;;;;5062257;28;20052;-70
2023/05/13 07:36:22;;;;;;;14.88;5.35;;;;;;;;;;5057135;28;20139;-70
2023/05/13 07:38:49;;;;;;;13.40;4.97;;;;;;;;;;5058189;28;20036;-70
2023/05/13 07:41:15;;;;;;;11.82;4.78;;;;;;;;;;5061410;28;20602;-70
2023/05/13 07:43:41;;;;;;;11.80;4.30;;;;;;;;;;5060769;28;20094;-69
2023/05/13 07:46:08;;;;;;;20.75;5.72;;;;;;;;;;5062850;28;20096;-68
2023/05/13 07:48:34;;;;;;;19.83;5.25;;;;;;;;;;5055711;28;20374;-69
2023/05/13 07:51:01;;;;;;;14.48;5.00;;;;;;;;;;5062312;28;20077;-71
2023/05/13 07:53:27;;;;;;;15.40;4.45;;;;;;;;;;5063547;28;20052;-70
2023/05/13 07:55:53;;;;;;;18.48;5.82;;;;;;;;;;5066689;28;20024;-69
2023/05/13 07:58:20;;;;;;;20.17;5.63;;;;;;;;;;5066941;28;20048;-70
2023/05/13 08:00:48;;;;;;;12.38;4.80;;;;;;;;;;5063093;28;20043;-69
2023/05/13 08:03:15;;;;;;;20.90;5.40;;;;;;;;;;5065271;28;20059;-69
2023/05/13 08:05:41;;;;;;;14.00;5.10;;;;;;;;;;5065363;28;21606;-70
2023/05/13 08:08:07;;;;;;;20.88;6.40;;;;;;;;;;5066422;28;20024;-69
2023/05/13 08:10:34;;;;;;;15.65;5.53;;;;;;;;;;5066798;28;20166;-69
2023/05/13 08:13:01;;;;;;;19.15;5.70;;;;;;;;;;5064498;28;20550;-70
2023/05/13 08:15:27;;;;;;;18.48;5.85;;;;;;;;;;5066583;28;20039;-69
2023/05/13 08:17:53;;;;;;;19.38;6.28;;;;;;;;;;5061521;28;20093;-69
2023/05/13 08:20:21;;;;;;;19.40;6.35;;;;;;;;;;5066423;28;20024;-69
2023/05/13 08:22:48;;;;;;;17.58;6.60;;;;;;;;;;5066696;28;20088;-69
2023/05/13 08:25:14;;;;;;;19.13;6.32;;;;;;;;;;5063059;28;20107;-74
2023/05/13 08:27:41;;;;;;;14.10;5.85;;;;;;;;;;5066412;28;20032;-69
2023/05/13 08:30:07;;;;;;;14.55;5.65;;;;;;;;;;5065287;28;20017;-70
2023/05/13 08:32:33;;;;;;;13.77;5.53;;;;;;;;;;5066064;28;20017;-69
2023/05/13 08:35:00;;;;;;;20.65;6.05;;;;;;;;;;5064422;28;20032;-69
2023/05/13 08:37:26;;;;;;;18.40;4.90;;;;;;;;;;5066245;28;20033;-70
2023/05/13 08:39:54;;;;;;;13.90;5.43;;;;;;;;;;5066120;28;20070;-69
2023/05/13 08:42:22;;;;;;;14.43;5.00;;;;;;;;;;5062651;28;20239;-69
2023/05/13 08:44:48;;;;;;;17.83;5.40;;;;;;;;;;5064905;28;20024;-69
2023/05/13 08:47:14;;;;;;;17.92;5.43;;;;;;;;;;5054728;28;20021;-70
2023/05/13 08:49:41;;;;;;;15.80;5.38;;;;;;;;;;5063403;28;20027;-69
2023/05/13 08:52:08;;;;;;;15.23;5.35;;;;;;;;;;5065844;28;20019;-69
2023/05/13 08:54:35;;;;;;;13.75;4.72;;;;;;;;;;5063718;28;20451;-69
2023/05/13 08:57:01;;;;;;;14.70;4.47;;;;;;;;;;5063827;28;20020;-69
2023/05/13 08:59:27;;;;;;;14.32;4.53;;;;;;;;;;5061355;28;20376;-69
2023/05/13 09:01:55;;;;;;;17.20;4.05;;;;;;;;;;5062652;28;20032;-69
2023/05/13 09:04:21;;;;;;;15.77;4.50;;;;;;;;;;5065022;28;20056;-69
2023/05/13 09:06:48;;;;;;;13.30;4.00;;;;;;;;;;5064609;28;20029;-69
2023/05/13 09:09:14;;;;;;;12.95;4.22;;;;;;;;;;5064329;28;20452;-69
2023/05/13 09:11:40;;;;;;;11.15;4.03;;;;;;;;;;5065079;28;20500;-69
2023/05/13 09:14:10;;;;;;;13.68;4.40;;;;;;;;;;5064790;28;20059;-69
2023/05/13 09:16:36;;;;;;;12.85;3.92;;;;;;;;;;5066157;28;20017;-69
2023/05/13 09:19:04;;;;;;;16.20;5.20;;;;;;;;;;5056822;28;20025;-69
2023/05/13 09:21:31;;;;;;;16.98;5.18;;;;;;;;;;5060829;28;20056;-69
2023/05/13 09:24:07;;;;;;;18.55;5.57;;;;;;;;;;5056491;28;20021;-69
2023/05/13 09:26:34;;;;;;;14.07;5.32;;;;;;;;;;5064898;28;20430;-68
2023/05/13 09:29:16;;;;;;;22.00;6.05;;;;;;;;;;5063529;28;20012;-68
2023/05/13 09:31:43;;;;;;;13.68;5.30;;;;;;;;;;5063977;28;20035;-68
2023/05/13 09:34:09;;;;;;;14.55;5.65;;;;;;;;;;5064743;28;20112;-69
2023/05/13 09:36:37;;;;;;;22.23;5.70;;;;;;;;;;5064721;28;20028;-69
2023/05/13 09:39:03;;;;;;;20.00;6.63;;;;;;;;;;5064806;28;20016;-69
2023/05/13 09:41:33;;;;;;;18.38;6.07;;;;;;;;;;5062082;28;20610;-69
2023/05/13 09:44:03;;;;;;;15.93;6.05;;;;;;;;;;5064921;28;20019;-68
2023/05/13 09:46:31;;;;;;;18.63;6.05;;;;;;;;;;5065195;28;20566;-69
2023/05/13 09:48:57;;;;;;;21.58;6.25;;;;;;;;;;5064165;28;20085;-68
2023/05/13 09:51:27;;;;;;;23.33;6.15;;;;;;;;;;5061642;28;20013;-69
2023/05/13 09:53:54;;;;;;;16.02;5.35;;;;;;;;;;5062857;28;20358;-68
2023/05/13 09:56:22;;;;;;;28.27;8.27;;;;;;;;;;5062977;28;20032;-69
2023/05/13 09:58:52;;;;;;;17.08;5.32;;;;;;;;;;5063147;28;20464;-68
2023/05/13 10:01:20;;;;;;;15.52;6.03;;;;;;;;;;5064148;28;20032;-68
2023/05/13 10:03:47;;;;;;;21.73;5.75;;;;;;;;;;5061419;28;20596;-69
2023/05/13 10:06:14;;;;;;;14.93;6.22;;;;;;;;;;5056648;28;20473;-69
2023/05/13 10:08:41;;;;;;;22.20;6.60;;;;;;;;;;5063880;28;20028;-69
2023/05/13 10:11:08;;;;;;;21.25;6.50;;;;;;;;;;5061674;28;20020;-69
2023/05/13 10:13:35;;;;;;;13.07;6.00;;;;;;;;;;5064899;28;20020;-68
2023/05/13 10:16:02;;;;;;;15.05;5.68;;;;;;;;;;5061824;28;20975;-69
2023/05/13 10:18:28;;;;;;;22.90;6.72;;;;;;;;;;5056678;28;20020;-68
2023/05/13 10:20:54;;;;;;;22.60;6.07;;;;;;;;;;5060509;28;20017;-68
2023/05/13 10:23:23;;;;;;;24.38;6.47;;;;;;;;;;5064305;28;20127;-69
2023/05/13 10:25:50;;;;;;;20.52;5.72;;;;;;;;;;5063942;28;20023;-69
2023/05/13 10:28:17;;;;;;;23.10;4.80;;;;;;;;;;5063517;28;20179;-69
2023/05/13 10:30:44;;;;;;;16.15;3.95;;;;;;;;;;5063429;28;20016;-69
2023/05/13 10:33:10;;;;;;;13.52;4.20;;;;;;;;;;5062085;28;20056;-69
2023/05/13 10:35:37;;;;;;;19.92;4.70;;;;;;;;;;5063672;28;20040;-69
2023/05/13 10:38:07;;;;;;;18.58;4.30;;;;;;;;;;5062220;28;20016;-69
2023/05/13 10:40:55;;;;;;;16.08;4.53;;;;;;;;;;5056303;28;20017;-69
2023/05/13 10:43:24;;;;;;;15.45;3.78;;;;;;;;;;5061893;28;20054;-69
2023/05/13 10:45:52;;;;;;;17.85;4.53;;;;;;;;;;5064044;28;20047;-69
2023/05/13 10:48:18;;;;;;;16.13;3.47;;;;;;;;;;5062668;28;20035;-69
2023/05/13 10:50:54;;;;;;;16.73;4.00;;;;;;;;;;5064013;28;20029;-69
2023/05/13 10:53:24;;;;;;;18.73;4.05;;;;;;;;;;5062727;28;20020;-69
2023/05/13 10:55:55;;;;;;;12.15;3.65;;;;;;;;;;5056919;28;20508;-69
2023/05/13 10:58:23;;;;;;;18.35;4.32;;;;;;;;;;5061321;28;20526;-68
2023/05/13 11:00:49;;;;;;;21.50;3.92;;;;;;;;;;5062990;28;20025;-69
2023/05/13 11:03:16;;;;;;;16.73;4.25;;;;;;;;;;5055824;28;20017;-68
2023/05/13 11:05:46;;;;;;;17.33;3.75;;;;;;;;;;5062958;28;20067;-69
2023/05/13 11:08:32;;;;;;;19.70;4.45;;;;;;;;;;5060080;28;20031;-69
2023/05/13 11:10:58;;;;;;;20.98;4.22;;;;;;;;;;5061520;28;20596;-68
2023/05/13 11:13:35;;;;;;;20.20;4.13;;;;;;;;;;5062784;28;20024;-69
2023/05/13 11:16:06;;;;;;;16.10;4.00;;;;;;;;;;5062960;28;20348;-69
2023/05/13 11:18:34;;;;;;;13.85;4.35;;;;;;;;;;5062900;28;20019;-69
2023/05/13 11:21:04;;;;;;;23.33;4.80;;;;;;;;;;5062795;28;20025;-69
2023/05/13 11:23:32;;;;;;;17.45;4.63;;;;;;;;;;5061076;28;20096;-71
2023/05/13 11:26:15;;;;;;;19.83;4.97;;;;;;;;;;5057830;28;20100;-69
2023/05/13 11:28:56;;;;;;;25.17;4.75;;;;;;;;;;5055907;28;20023;-69
2023/05/13 11:31:23;;;;;;;24.27;5.32;;;;;;;;;;5061768;28;20024;-69
2023/05/13 11:34:18;;;;;;;17.95;4.63;;;;;;;;;;5061088;28;20028;-68
2023/05/13 11:36:46;;;;;;;28.73;5.25;;;;;;;;;;5062524;28;20535;-69
2023/05/13 11:39:16;;;;;;;32.22;5.10;;;;;;;;;;5062349;28;20028;-69
2023/05/13 11:41:49;;;;;;;26.25;4.65;;;;;;;;;;5058504;28;20062;-69
2023/05/13 11:44:19;;;;;;;21.85;4.20;;;;;;;;;;5062470;28;20028;-69
2023/05/13 11:46:49;;;;;;;18.48;4.32;;;;;;;;;;5058755;28;20122;-69
2023/05/13 11:49:41;;;;;;;22.05;4.35;;;;;;;;;;5057606;28;20206;-69
2023/05/13 11:52:09;;;;;;;20.70;4.18;;;;;;;;;;5057368;28;20595;-70
2023/05/13 11:54:49;;;;;;;19.35;4.53;;;;;;;;;;5060268;28;20093;-69
2023/05/13 11:57:18;;;;;;;17.15;4.43;;;;;;;;;;5059618;28;20028;-69
2023/05/13 12:00:05;;;;;;;22.77;4.82;;;;;;;;;;5061181;28;20469;-69
2023/05/13 12:02:34;;;;;;;23.80;5.40;;;;;;;;;;5060655;28;20411;-69
2023/05/13 12:05:03;;;;;;;26.35;5.22;;;;;;;;;;5061569;28;20040;-69
2023/05/13 12:07:29;;;;;;;19.95;4.45;;;;;;;;;;5062182;28;20044;-69
2023/05/13 12:09:56;;;;;;;26.92;4.95;;;;;;;;;;5062114;28;20082;-69
2023/05/13 12:12:23;;;;;;;21.25;5.28;;;;;;;;;;5059279;28;20031;-69
2023/05/13 12:14:49;;;;;;;24.73;5.00;;;;;;;;;;5062401;28;20128;-69
2023/05/13 12:17:19;;;;;;;27.83;5.75;;;;;;;;;;5061144;28;20036;-69
2023/05/13 12:20:05;;;;;;;21.95;4.75;;;;;;;;;;5054958;28;20017;-69
2023/05/13 12:22:31;;;;;;;25.98;5.22;;;;;;;;;;5057128;28;20464;-69
2023/05/13 12:25:00;;;;;;;20.55;4.85;;;;;;;;;;5061279;28;20025;-69
2023/05/13 12:27:27;;;;;;;29.95;6.43;;;;;;;;;;5057498;28;20036;-69
2023/05/13 12:29:56;;;;;;;34.15;7.40;;;;;;;;;;5060476;28;20475;-71
2023/05/13 12:32:24;;;;;;;34.65;6.20;;;;;;;;;;5059911;28;20033;-71
2023/05/13 12:34:51;;;;;;;29.65;5.78;;;;;;;;;;5054402;28;20032;-70
2023/05/13 12:37:17;;;;;;;27.75;5.68;;;;;;;;;;5052054;28;20037;-71
2023/05/13 12:39:43;;;;;;;35.88;6.13;;;;;;;;;;5062532;28;20527;-71
2023/05/13 12:42:17;;;;;;;30.15;6.18;;;;;;;;;;5054787;28;20027;-71
2023/05/13 12:44:46;;;;;;;30.17;6.18;;;;;;;;;;5062577;28;20101;-70
2023/05/13 12:47:14;;;;;;;43.25;6.00;;;;;;;;;;5063540;28;20021;-69
2023/05/13 12:49:53;;;;;;;32.20;7.05;;;;;;;;;;5065300;28;20025;-69
2023/05/13 12:52:20;;;;;;;32.28;5.78;;;;;;;;;;5063563;28;20109;-70
2023/05/13 12:54:46;;;;;;;37.15;7.45;;;;;;;;;;5063931;28;20404;-68
2023/05/13 12:57:12;;;;;;;39.85;7.50;;;;;;;;;;5064356;28;20107;-70
2023/05/13 12:59:39;;;;;;;39.72;7.78;;;;;;;;;;5066659;28;20606;-69
2023/05/13 13:02:05;;;;;;;22.00;6.72;;;;;;;;;;5066000;28;20749;-69
2023/05/13 13:04:31;;;;;;;25.13;7.07;;;;;;;;;;5065712;28;20037;-69
2023/05/13 13:06:57;;;;;;;28.00;6.63;;;;;;;;;;5064221;28;20027;-68
2023/05/13 13:09:23;;;;;;;19.83;5.88;;;;;;;;;;5064452;28;20544;-68
2023/05/13 13:11:51;;;;;;;31.48;6.15;;;;;;;;;;5065134;28;20729;-68
2023/05/13 13:14:17;;;;;;;31.20;4.97;;;;;;;;;;5065362;28;20035;-68
2023/05/13 13:16:43;;;;;;;27.63;5.68;;;;;;;;;;5057358;28;20033;-69
2023/05/13 13:19:09;;;;;;;22.42;5.07;;;;;;;;;;5063597;28;20017;-68
2023/05/13 13:21:36;;;;;;;27.65;6.10;;;;;;;;;;5065117;28;20036;-68
2023/05/13 13:24:02;;;;;;;21.73;5.88;;;;;;;;;;5061050;28;20009;-68
2023/05/13 13:26:28;;;;;;;50.58;8.20;;;;;;;;;;5062017;28;20052;-68
2023/05/13 13:28:54;;;;;;;50.72;10.23;;;;;;;;;;5059935;28;20060;-69
2023/05/13 13:31:20;;;;;;;49.15;9.50;;;;;;;;;;5065719;28;20053;-69
2023/05/13 13:33:46;;;;;;;59.33;10.70;;;;;;;;;;5063464;28;20020;-68
2023/05/13 13:36:13;;;;;;;62.22;10.55;;;;;;;;;;5065193;28;20024;-68
2023/05/13 13:38:39;;;;;;;67.65;12.82;;;;;;;;;;5056423;28;20555;-68
2023/05/13 13:41:05;;;;;;;86.38;12.30;;;;;;;;;;5064753;28;20523;-68
2023/05/13 13:43:31;;;;;;;94.28;14.23;;;;;;;;;;5063195;28;20036;-69
2023/05/13 13:45:57;;;;;;;79.90;13.45;;;;;;;;;;5064978;28;20013;-68
2023/05/13 13:48:24;;;;;;;111.53;16.48;;;;;;;;;;5064298;28;20032;-68
2023/05/13 13:50:51;;;;;;;100.85;15.75;;;;;;;;;;5063569;28;20107;-68
2023/05/13 13:53:17;;;;;;;113.13;15.63;;;;;;;;;;5062750;28;20465;-68
2023/05/13 13:55:43;;;;;;;107.40;14.77;;;;;;;;;;5064236;28;20220;-68
2023/05/13 13:58:10;;;;;;;91.30;15.00;;;;;;;;;;5063959;28;20103;-68
2023/05/13 14:00:36;;;;;;;97.95;16.38;;;;;;;;;;5065120;28;20024;-68
2023/05/13 14:03:02;;;;;;;94.82;17.05;;;;;;;;;;5064322;28;20024;-68
2023/05/13 14:05:28;;;;;;;114.93;14.93;;;;;;;;;;5062994;28;20131;-68
2023/05/13 14:07:55;;;;;;;104.40;15.85;;;;;;;;;;5062814;28;20029;-69
2023/05/13 14:10:21;;;;;;;85.65;13.93;;;;;;;;;;5056151;28;20121;-69
2023/05/13 14:12:49;;;;;;;118.72;16.40;;;;;;;;;;5057425;28;20060;-69
2023/05/13 14:15:15;;;;;;;86.30;14.10;;;;;;;;;;5061816;28;20599;-69
2023/05/13 14:17:41;;;;;;;99.88;16.52;;;;;;;;;;5058222;28;20415;-69
2023/05/13 14:20:09;;;;;;;99.72;15.40;;;;;;;;;;5052128;28;20393;-68
2023/05/13 14:22:35;;;;;;;109.20;16.60;;;;;;;;;;5053058;28;20021;-69
2023/05/13 14:25:01;;;;;;;141.80;17.67;;;;;;;;;;5061230;28;20027;-71
2023/05/13 14:27:28;;;;;;;85.28;16.27;;;;;;;;;;5052777;28;20029;-69
2023/05/13 14:29:54;;;;;;;121.78;17.88;;;;;;;;;;5060604;28;20041;-68
2023/05/13 14:32:20;;;;;;;86.95;16.10;;;;;;;;;;5060994;28;20036;-69